Latest Weather Observations for Nerriga

IDN60801

Issued at 3:42 pm EST Sunday 15 September 2019 (issued every 10 minutes, with the page automatically refreshed every 10 minutes)

About weather observations | Map of weather stations | Latest weather observations for NSW | Other Formats
Station Details ID: 069128 Name: NERRIGA AWS Lat: -35.11 Lon: 150.08 Height: 622.0 m
Data from the previous 72 hours. | See also: Recent months at Nerriga
Date/Time
EST
Temp
°C
App
Temp
°C
Dew
Point
°C
Rel
Hum
%
Delta-T
°C
Wind Press
QNH
hPa
Press
MSL
hPa
Rain since
9am
mm
Dir  Spd
km/h
Gust
km/h
Spd
kts
Gust
kts
15/03:30pm 23.0 15.6 -3.3 17 11.5 NW 26 39 14 21 1019.2 1019.2 0.0
15/03:00pm 21.9 14.4 -5.0 16 11.3 W 26 37 14 20 1019.5 1019.5 0.0
15/02:30pm 22.6 15.6 -3.7 17 11.4 W 24 32 13 17 1019.7 1019.7 0.0
15/02:00pm 23.5 15.8 -2.9 17 11.7 WNW 28 43 15 23 1019.7 1019.7 0.0
15/01:30pm 22.4 15.4 -3.8 17 11.3 NW 24 33 13 18 1019.8 1019.8 0.0
15/01:00pm 22.8 15.4 -7.0 13 12.1 NW 24 33 13 18 1020.2 1020.3 0.0
15/12:30pm 23.5 16.3 -5.5 14 12.3 W 24 37 13 20 1020.7 1020.7 0.0
15/12:00pm 22.1 15.5 -6.6 14 11.7 NNW 20 32 11 17 1021.2 1021.2 0.0
15/11:30am 21.0 15.1 -9.4 12 11.6 WNW 15 22 8 12 1021.7 1021.8 0.0
15/11:00am 18.8 12.0 -11.2 12 10.8 WNW 19 28 10 15 1022.5 1022.5 0.0
15/10:30am 18.0 14.4 -3.4 23 9.0 E 6 11 3 6 1022.6 1022.6 0.0
15/10:00am 17.6 14.4 -0.6 29 8.0 E 6 7 3 4 1023.0 1023.1 0.0
15/09:30am 14.3 12.7 2.5 45 5.4 CALM 0 0 0 0 1023.4 1023.5 0.0
15/09:00am 13.0 11.4 2.3 48 4.8 CALM 0 4 0 2 1023.6 1023.7 0.0
15/08:30am 10.3 7.9 1.9 56 3.7 E 4 6 2 3 1023.6 1023.7 0.0
15/08:00am 8.6 6.6 4.2 74 2.0 E 4 7 2 4 1023.1 1023.2 0.0
15/07:30am 6.2 4.7 3.2 81 1.3 CALM 0 0 0 0 1023.2 1023.3 0.0
15/07:00am 4.8 3.4 3.5 91 0.6 CALM 0 2 0 1 1023.1 1023.2 0.0
15/06:30am 2.2 0.4 1.3 94 0.4 CALM 0 0 0 0 1023.0 1023.1 0.0
15/06:00am 1.8 0.0 1.1 95 0.3 CALM 0 2 0 1 1022.8 1022.9 0.0
15/05:30am 1.3 -0.6 0.3 93 0.4 CALM 0 0 0 0 1022.7 1022.7 0.0
15/05:00am 0.4 -2.0 -0.5 94 0.3 E 2 7 1 4 1022.4 1022.4 0.0
15/04:30am 2.8 1.3 2.8 100 0.0 CALM 0 0 0 0 1022.3 1022.3 0.0
15/04:00am 0.7 -1.6 0.6 99 0.0 E 2 4 1 2 1022.2 1022.2 0.0
15/03:30am 3.2 1.7 3.2 100 0.0 CALM 0 4 0 2 1021.8 1021.9 0.0
15/03:00am 2.9 1.4 2.9 100 0.0 CALM 0 2 0 1 1022.2 1022.2 0.0
15/02:30am 2.9 1.0 2.9 100 0.0 E 2 4 1 2 1022.2 1022.2 0.0
15/02:00am 2.3 0.3 2.3 100 0.0 E 2 2 1 1 1022.6 1022.6 0.0
15/01:30am 2.9 1.4 2.9 100 0.0 CALM 0 0 0 0 1022.7 1022.7 0.0
15/01:00am 2.0 -0.1 1.9 99 0.0 E 2 4 1 2 1023.2 1023.3 0.0
15/12:30am 2.9 1.4 2.8 99 0.0 CALM 0 0 0 0 1023.2 1023.3 0.0
15/12:00am 3.0 1.5 2.9 99 0.0 CALM 0 0 0 0 1023.3 1023.4 0.0
 
Date/Time
EST
Temp
°C
App
Temp
°C
Dew
Point
°C
Rel
Hum
%
Delta-T
°C
Wind Press
QNH
hPa
Press
MSL
hPa
Rain since
9am
mm
Dir  Spd
km/h
Gust
km/h
Spd
kts
Gust
kts
14/11:30pm 3.5 2.0 3.2 98 0.1 CALM 0 0 0 0 1023.6 1023.7 0.0
14/11:00pm 3.9 1.7 3.5 97 0.2 E 4 6 2 3 1023.5 1023.6 0.0
14/10:30pm 3.8 1.2 3.1 95 0.3 E 6 7 3 4 1023.8 1023.8 0.0
14/10:00pm 4.7 2.6 3.8 94 0.4 E 4 6 2 3 1023.8 1023.8 0.0
14/09:30pm 5.2 3.2 4.2 93 0.4 E 4 4 2 2 1023.9 1023.9 0.0
14/09:00pm 5.9 4.3 4.4 90 0.7 E 2 4 1 2 1023.8 1023.8 0.0
14/08:30pm 7.1 5.9 4.6 84 1.1 CALM 0 0 0 0 1023.6 1023.7 0.0
14/08:00pm 8.0 5.7 4.9 81 1.4 E 6 9 3 5 1023.6 1023.7 0.0
14/07:30pm 8.6 6.1 5.0 78 1.7 E 7 11 4 6 1023.4 1023.5 0.0
14/07:00pm 9.4 6.2 5.2 75 2.0 E 11 20 6 11 1023.3 1023.4 0.0
14/06:30pm 10.3 6.5 5.7 73 2.2 ENE 15 19 8 10 1022.9 1023.0 0.0
14/06:00pm 11.4 6.7 5.9 69 2.6 ENE 20 28 11 15 1022.5 1022.5 0.0
14/05:30pm 12.7 8.5 5.8 63 3.4 ENE 17 26 9 14 1022.3 1022.3 0.0
14/05:00pm 14.4 9.8 6.3 58 4.0 ENE 20 26 11 14 1021.7 1021.8 0.0
14/04:30pm 15.3 10.7 6.3 55 4.5 E 20 28 11 15 1021.4 1021.4 0.0
14/04:00pm 17.0 12.1 6.8 51 5.2 E 22 33 12 18 1021.0 1021.0 0.0
14/03:30pm 18.4 13.9 5.9 44 6.3 SE 19 30 10 16 1020.7 1020.7 0.0
14/03:00pm 21.1 16.4 -9.4 12 11.7 WSW 9 19 5 10 1020.8 1020.8 0.0
14/02:30pm 20.8 15.4 -8.6 13 11.4 NW 13 30 7 16 1020.8 1020.8 0.0
14/02:00pm 20.4 16.4 -5.4 17 10.6 WNW 7 17 4 9 1021.1 1021.1 0.0
14/01:30pm 20.0 15.2 -5.8 17 10.5 WNW 11 20 6 11 1021.5 1021.6 0.0
14/01:00pm 18.8 14.7 -6.7 17 10.0 WSW 7 17 4 9 1021.8 1021.9 0.0
14/12:30pm 18.2 13.8 -5.8 19 9.6 WSW 9 17 5 9 1022.2 1022.2 0.0
14/12:00pm 17.7 13.8 -4.3 22 9.0 WSW 7 17 4 9 1022.6 1022.6 0.0
14/11:30am 16.1 12.4 -5.0 23 8.4 WSW 6 13 3 7 1022.9 1023.0 0.0
14/11:00am 15.3 11.5 -4.1 26 7.8 WSW 7 15 4 8 1023.4 1023.5 0.0
14/10:30am 14.6 10.9 -3.2 29 7.2 WSW 7 13 4 7 1023.6 1023.7 0.0
14/10:00am 13.6 10.8 -0.4 38 6.0 WSW 4 9 2 5 1024.0 1024.0 0.0
14/09:30am 12.5 9.4 0.3 43 5.3 WSW 6 9 3 5 1024.1 1024.1 0.0
14/09:00am 11.3 8.0 0.4 47 4.6 WSW 7 11 4 6 1024.2 1024.3 0.0
14/08:30am 10.4 7.3 0.2 49 4.3 WSW 6 9 3 5 1024.1 1024.1 0.0
14/08:00am 9.5 7.5 -0.1 51 4.0 CALM 0 4 0 2 1023.8 1023.8 0.0
14/07:30am 7.9 6.1 0.9 61 2.9 CALM 0 4 0 2 1023.5 1023.6 0.0
14/07:00am 3.2 0.2 -1.7 70 1.8 WSW 4 6 2 3 1023.0 1023.1 0.0
14/06:30am 1.1 -1.7 -3.0 74 1.5 WSW 2 4 1 2 1022.6 1022.6 0.0
14/06:00am 2.2 -0.1 -2.3 72 1.6 CALM 0 6 0 3 1022.2 1022.2 0.0
14/05:30am 1.4 -1.1 -3.7 69 1.8 CALM 0 0 0 0 1022.2 1022.2 0.0
14/05:00am 1.4 -1.9 -4.0 67 1.9 WSW 4 6 2 3 1021.6 1021.7 0.0
14/04:30am 4.0 1.2 -3.7 57 2.7 WSW 2 6 1 3 1021.2 1021.2 0.0
14/04:00am 2.4 -1.3 -5.0 58 2.6 WSW 6 7 3 4 1020.8 1020.8 0.0
14/03:30am 2.7 -0.7 -5.2 56 2.7 WSW 4 6 2 3 1020.8 1020.8 0.0
14/03:00am 3.7 -0.2 -5.0 53 3.0 WSW 7 9 4 5 1020.7 1020.7 0.0
14/02:30am 5.2 1.4 -5.7 45 3.8 WSW 6 9 3 5 1020.6 1020.6 0.0
14/02:00am 7.8 4.6 -6.7 35 5.0 WSW 2 6 1 3 1020.7 1020.7 0.0
14/01:30am 9.4 5.5 -6.8 31 5.7 WSW 6 9 3 5 1020.8 1020.8 0.0
14/01:00am 10.5 6.0 -7.2 28 6.3 WSW 9 15 5 8 1020.8 1020.8 0.0
14/12:30am 10.7 5.8 -6.6 29 6.2 W 11 20 6 11 1020.9 1020.9 0.0
14/12:00am 11.1 5.7 -4.9 32 6.0 W 15 22 8 12 1021.1 1021.1 0.0
 
Date/Time
EST
Temp
°C
App
Temp
°C
Dew
Point
°C
Rel
Hum
%
Delta-T
°C
Wind Press
QNH
hPa
Press
MSL
hPa
Rain since
9am
mm
Dir  Spd
km/h
Gust
km/h
Spd
kts
Gust
kts
13/11:30pm 11.2 5.6 -2.9 37 5.6 W 17 22 9 12 1021.1 1021.1 0.0
13/11:00pm 11.7 6.5 -2.5 37 5.7 W 15 24 8 13 1021.2 1021.2 0.0
13/10:30pm 12.4 8.0 -2.6 35 6.1 W 11 17 6 9 1021.3 1021.3 0.0
13/10:00pm 13.1 7.9 -2.4 34 6.3 W 15 22 8 12 1021.3 1021.3 0.0
13/09:30pm 13.3 8.9 -2.6 33 6.5 WNW 11 15 6 8 1021.3 1021.3 0.0
13/09:00pm 13.6 9.1 -3.6 30 6.9 WNW 11 15 6 8 1021.1 1021.1 0.0
13/08:30pm 14.4 9.8 -4.3 27 7.4 W 11 17 6 9 1021.1 1021.1 0.0
13/08:00pm 15.0 9.6 -4.3 26 7.7 WNW 15 24 8 13 1021.0 1021.0 0.0
13/07:30pm 15.3 9.4 -5.7 23 8.2 WNW 17 28 9 15 1021.0 1021.0 0.0
13/07:00pm 15.4 9.0 -6.8 21 8.4 WNW 19 32 10 17 1021.3 1021.3 0.0
13/06:30pm 16.4 9.0 -7.9 18 9.1 W 24 35 13 19 1021.2 1021.2 0.0
13/06:00pm 17.0 9.3 -11.6 13 10.0 WNW 24 43 13 23 1020.5 1020.5 0.0
13/05:30pm 17.5 10.1 -12.2 12 10.3 WNW 22 33 12 18 1020.6 1020.6 0.0
13/05:00pm 18.8 12.0 -12.2 11 10.9 W 19 26 10 14 1020.6 1020.6 0.0
13/04:30pm 19.1 11.0 -12.0 11 11.1 WNW 26 37 14 20 1020.0 1020.0 0.0
13/04:00pm 20.7 13.6 -8.7 13 11.4 NW 22 33 12 18 1019.5 1019.5 0.0
13/03:30pm 20.4 11.0 -11.0 11 11.6 WNW 33 46 18 25 1019.6 1019.6 0.0
13/03:00pm 20.8 13.3 -8.6 13 11.4 NW 24 35 13 19 1019.8 1019.8 0.0
13/02:30pm 21.4 13.1 -9.1 12 11.8 NW 28 39 15 21 1019.7 1019.7 0.0
13/02:00pm 20.9 13.6 -10.6 11 11.8 NW 22 35 12 19 1020.1 1020.2 0.0
13/01:30pm 19.8 13.4 -11.5 11 11.3 NNW 17 26 9 14 1020.8 1020.8 0.0
13/01:00pm 19.6 14.3 -7.7 15 10.7 NW 13 20 7 11 1021.2 1021.2 0.0
13/12:30pm 18.1 13.7 -5.9 19 9.6 NNW 9 17 5 9 1021.6 1021.7 0.0
13/12:00pm 17.9 13.6 -5.3 20 9.3 NNW 9 17 5 9 1022.3 1022.3 0.0
13/11:30am 17.4 13.5 -4.5 22 8.9 N 7 15 4 8 1022.8 1022.9 0.0
13/11:00am 16.3 12.3 -2.2 28 7.8 N 9 19 5 10 1023.2 1023.3 0.0
13/10:30am 15.7 12.4 -0.1 34 6.9 N 7 17 4 9 1023.6 1023.7 0.0
13/10:00am 14.5 10.9 0.4 38 6.2 NNW 9 15 5 8 1024.1 1024.1 0.0
13/09:30am 13.2 9.8 2.1 47 5.0 SSE 9 13 5 7 1024.1 1024.1 0.0
13/09:00am 11.6 8.8 3.1 56 3.9 SSE 7 9 4 5 1024.4 1024.5 0.0
13/08:30am 9.8 7.6 3.1 63 3.0 SSE 4 6 2 3 1024.5 1024.6 0.0
13/08:00am 7.3 5.6 1.8 68 2.3 CALM 0 2 0 1 1024.6 1024.7 0.0
13/07:30am 3.3 1.4 0.7 83 1.0 CALM 0 0 0 0 1024.7 1024.8 0.0
13/07:00am 1.8 -0.9 0.5 91 0.5 SSE 4 4 2 2 1024.2 1024.3 0.0
13/06:30am -0.7 -3.8 -2.3 89 0.5 SSE 4 4 2 2 1023.6 1023.7 0.0
13/06:00am -0.1 -2.3 -1.2 92 0.4 CALM 0 0 0 0 1023.1 1023.2 0.0
13/05:30am 0.5 -1.6 -0.9 90 0.5 CALM 0 0 0 0 1022.7 1022.7 0.0
13/05:00am 0.0 -2.2 -1.6 89 0.6 CALM 0 0 0 0 1022.2 1022.2 0.0
13/04:30am 0.9 -1.3 -1.5 84 0.9 CALM 0 0 0 0 1021.5 1021.6 0.0
13/04:00am 1.6 -0.5 -0.8 84 0.9 CALM 0 0 0 0 1021.1 1021.1 0.0
13/03:30am 2.6 0.5 -0.7 79 1.3 CALM 0 0 0 0 1020.6 1020.6 0.0
13/03:00am 2.4 0.3 -0.5 81 1.1 CALM 0 0 0 0 1020.9 1020.9 0.0
13/02:30am 2.6 0.4 -1.2 76 1.4 CALM 0 0 0 0 1021.3 1021.3 0.0
13/02:00am 3.4 0.6 -0.6 75 1.5 SSE 4 6 2 3 1021.2 1021.2 0.0
13/01:30am 3.0 0.2 -0.6 77 1.4 SSE 4 6 2 3 1021.0 1021.0 0.0
13/01:00am 4.7 2.0 0.3 73 1.8 SSE 4 6 2 3 1020.6 1020.6 0.0
13/12:30am 6.1 2.8 0.0 65 2.4 SSE 7 9 4 5 1020.2 1020.3 0.0
13/12:00am 5.6 2.5 0.2 68 2.2 SSE 6 7 3 4 1020.5 1020.5 0.0
 
Date/Time
EST
Temp
°C
App
Temp
°C
Dew
Point
°C
Rel
Hum
%
Delta-T
°C
Wind Press
QNH
hPa
Press
MSL
hPa
Rain since
9am
mm
Dir  Spd
km/h
Gust
km/h
Spd
kts
Gust
kts
12/11:30pm 5.7 2.5 -0.6 64 2.5 SSE 6 7 3 4 1020.6 1020.6 0.0
12/11:00pm 7.3 5.3 -0.2 59 3.0 CALM 0 0 0 0 1020.2 1020.3 0.0
12/10:30pm 9.2 6.1 -0.1 52 3.8 SSE 6 6 3 3 1020.0 1020.0 0.0
12/10:00pm 9.5 7.5 -0.1 51 4.0 CALM 0 0 0 0 1020.5 1020.5 0.0
12/09:30pm 10.8 8.1 0.2 48 4.5 SSE 4 6 2 3 1020.6 1020.6 0.0
12/09:00pm 10.0 5.3 0.6 52 4.0 SW 15 20 8 11 1020.8 1020.8 0.0
12/08:30pm 11.4 8.6 -0.7 43 5.0 WSW 4 6 2 3 1020.1 1020.2 0.0
12/08:00pm 12.5 9.1 -0.4 41 5.5 WSW 7 9 4 5 1020.7 1020.7 0.0
12/07:30pm 13.2 9.9 -0.1 40 5.7 WSW 7 11 4 6 1020.6 1020.6 0.0
12/07:00pm 13.3 8.8 0.0 40 5.7 W 13 19 7 10 1020.0 1020.0 0.0
12/06:30pm 13.9 8.1 -0.2 38 6.1 W 20 30 11 16 1019.1 1019.1 0.0
12/06:00pm 14.8 5.4 -0.1 36 6.5 W 39 52 21 28 1018.5 1018.5 0.0
12/05:48pm 15.3 6.9 -0.9 33 7.0 W 33 54 18 29 1018.7 1018.6 0.0
12/05:30pm 15.7 6.8 -2.3 29 7.6 WNW 35 50 19 27 1018.3 1018.3 0.0
12/05:01pm 15.6 5.1 -2.8 28 7.6 WNW 43 61 23 33 1017.6 1017.6 0.0
12/05:00pm 15.6 5.1 -2.8 28 7.6 WNW 43 61 23 33 1017.5 1017.5 0.0
12/04:31pm 15.9 8.1 -3.6 26 8.0 WNW 28 48 15 26 1018.3 1018.3 0.0
12/04:30pm 16.0 7.9 -3.5 26 8.0 WNW 30 48 16 26 1018.3 1018.3 0.0
12/04:14pm 16.4 7.4 -3.1 26 8.1 WNW 35 56 19 30 1018.0 1018.0 0.0
12/04:00pm 16.8 6.7 -2.8 26 8.2 WNW 41 56 22 30 1017.7 1017.7 0.0

Other formats

Comma delimited format used in spreadsheet applications
http://www.bom.gov.au/fwo/IDN60801/IDN60801.94943.axf

JavaScript Object Notation format (JSON) in row-major order
http://www.bom.gov.au/fwo/IDN60801/IDN60801.94943.json

Data quality

Most of these data are generated automatically and are frequently updated. Quality checks on data are not normally performed. It is possible for incorrect values to appear. Refer to information at About Latest Weather Observations and please check the disclaimer before using these data.